首页
METAR-TAF:

METAR-TAF

机场 :

温斯顿-塞勒姆, 北卡罗来纳州, 美国

纬度: 36-08-00N, 经度: 080-13-29W, 海拔: 295米

当前天气观测

该预报发布于21分钟前的17:54 UTC
风速7节,风向东北
温度 4°C
湿度 52%
气压 1019 hPa
能見度: 16.1公里
多云层高于11000英尺

METAR: KINT 101754Z 05007KT 10SM BKN110 04/M05 A3008 RMK AO2 SLP190 60002 T00391050 10039 20011 58015

时间: 13:15 (18:15 UTC)

预报

该预报发布于55分钟前的17:20 UTC
预报有效从10日的 18点(UTC)到 11日的 18点(UTC)
风速7节,风向东北
能見度: 10公里
多云层高于8000英尺
从 11日的 0300点(UTC)
风速节,风向
能見度: 10公里
多云层高于25000英尺
从 11日的 1500点(UTC)
风速6节,风向北转西北
能見度: 10公里
散云层高于25000英尺

TAF: KINT 101720Z 1018/1118 04007KT P6SM BKN080 FM110300 00000KT P6SM BKN250 FM111500 33006KT P6SM SCT250

超过4000个机场的气象观测和天气预报(METAR&TAF报告)。

可查询的气象台以黄色和红色小点在地图上表示。

将鼠标移到小点上方,可查看气象台名称。

然后点击查看天气观测和预报。

如需切换地图:点击带黑十字的绿色按钮放大地图;点击带横线的绿色按钮缩小地图;或者点击绿色箭头查看邻近地区的地图。


METAR-TAF: